createdAt,value
2019-04-20T00:00:57.814Z,11.70
2019-04-20T00:03:30.979Z,12.13
2019-04-20T00:05:55.468Z,11.65
2019-04-20T00:08:27.834Z,12.07
2019-04-20T00:11:02.665Z,12.40
2019-04-20T00:13:38.380Z,11.40
2019-04-20T00:15:55.809Z,12.33
2019-04-20T00:18:26.861Z,11.60
2019-04-20T00:21:00.264Z,12.28
2019-04-20T00:23:33.434Z,13.85
2019-04-20T00:26:14.824Z,11.88
2019-04-20T00:28:57.173Z,11.25
2019-04-20T00:33:48.209Z,13.43
2019-04-20T00:36:07.402Z,14.78
2019-04-20T00:38:45.288Z,13.25
2019-04-20T00:41:10.122Z,14.55
2019-04-20T00:43:39.142Z,15.90
2019-04-20T00:46:14.839Z,13.98
2019-04-20T00:48:49.756Z,13.25
2019-04-20T00:51:26.248Z,11.75
2019-04-20T00:53:42.552Z,12.13
2019-04-20T00:56:07.794Z,11.73
2019-04-20T00:58:50.775Z,12.33
2019-04-20T01:01:27.466Z,13.72
2019-04-20T01:03:52.692Z,13.62
2019-04-20T01:08:46.394Z,13.38
2019-04-20T01:11:17.600Z,13.08
2019-04-20T01:13:51.995Z,13.50
2019-04-20T01:16:25.283Z,12.47
2019-04-20T01:18:47.242Z,10.93
2019-04-20T01:21:20.317Z,9.88
2019-04-20T01:23:51.240Z,10.68
2019-04-20T01:26:19.158Z,10.18
2019-04-20T01:28:58.247Z,12.00
2019-04-20T01:31:27.286Z,11.38
2019-04-20T01:33:55.098Z,13.15
2019-04-20T01:36:36.867Z,13.85
2019-04-20T01:38:58.972Z,11.78
2019-04-20T01:41:18.263Z,13.75
2019-04-20T01:43:48.003Z,12.93
2019-04-20T01:46:20.681Z,12.68
2019-04-20T01:48:48.168Z,12.47
2019-04-20T01:51:22.810Z,11.73
2019-04-20T01:54:06.676Z,12.10
2019-04-20T01:56:37.311Z,12.82
2019-04-20T01:59:10.727Z,13.75
2019-04-20T02:01:42.487Z,14.10
2019-04-20T02:04:25.465Z,11.05
2019-04-20T02:06:53.459Z,12.80
2019-04-20T02:11:50.858Z,14.47
2019-04-20T02:14:24.270Z,13.48
2019-04-20T02:16:53.051Z,11.85
2019-04-20T02:19:30.688Z,12.40
2019-04-20T02:22:03.816Z,12.53
2019-04-20T02:24:19.511Z,15.03
2019-04-20T02:26:50.061Z,13.43
2019-04-20T02:29:39.890Z,15.58
2019-04-20T02:32:23.810Z,14.63
2019-04-20T02:34:56.785Z,14.60
2019-04-20T02:37:55.121Z,15.10
2019-04-20T02:40:12.751Z,14.20
2019-04-20T02:42:44.820Z,14.28
2019-04-20T02:45:10.442Z,15.03
2019-04-20T02:52:38.053Z,15.78
2019-04-20T02:55:10.863Z,14.45
2019-04-20T02:57:43.728Z,15.65
2019-04-20T03:00:05.448Z,17.27
2019-04-20T03:02:18.137Z,16.05
2019-04-20T03:04:42.514Z,16.25
2019-04-20T03:07:15.362Z,17.57
2019-04-20T03:09:50.522Z,16.40
2019-04-20T03:14:47.809Z,16.95
2019-04-20T03:17:27.262Z,18.82
2019-04-20T03:19:47.794Z,16.50
2019-04-20T03:22:35.021Z,16.85
2019-04-20T03:24:59.736Z,16.55
2019-04-20T03:27:25.116Z,17.30
2019-04-20T03:30:07.150Z,16.75
2019-04-20T03:35:17.433Z,19.20
2019-04-20T03:37:36.430Z,19.87
2019-04-20T03:39:58.032Z,22.02
2019-04-20T03:42:16.013Z,23.10
2019-04-20T03:44:55.028Z,26.73
2019-04-20T03:47:29.351Z,27.00
2019-04-20T03:50:06.062Z,26.10
2019-04-20T03:52:40.368Z,28.92
2019-04-20T03:55:26.234Z,31.23
2019-04-20T03:58:04.494Z,34.27
2019-04-20T04:00:43.261Z,29.63
2019-04-20T04:03:20.260Z,30.52
2019-04-20T04:05:48.006Z,31.52
2019-04-20T04:08:14.943Z,33.23
2019-04-20T04:10:54.763Z,30.80
2019-04-20T04:13:16.886Z,28.87
2019-04-20T04:15:51.913Z,30.20
2019-04-20T04:18:26.106Z,27.32
2019-04-20T04:20:54.109Z,26.75
2019-04-20T04:23:37.847Z,26.95
2019-04-20T04:26:15.013Z,25.30
2019-04-20T04:28:37.412Z,24.82
2019-04-20T04:31:09.469Z,24.10
2019-04-20T04:33:51.968Z,23.57
2019-04-20T04:36:08.915Z,23.27
2019-04-20T04:38:44.633Z,24.27
2019-04-20T04:41:16.403Z,21.48
2019-04-20T04:43:39.763Z,23.62
2019-04-20T04:45:51.329Z,23.95
2019-04-20T04:48:27.653Z,23.45
2019-04-20T04:50:56.461Z,22.60
2019-04-20T04:53:30.298Z,23.12
2019-04-20T04:55:58.533Z,21.73
2019-04-20T04:58:21.601Z,22.67
2019-04-20T05:00:51.503Z,23.07
2019-04-20T05:03:38.789Z,22.45
2019-04-20T05:06:16.728Z,22.22
2019-04-20T05:08:31.680Z,20.37
2019-04-20T05:10:54.213Z,21.33
2019-04-20T05:13:27.300Z,20.57
2019-04-20T05:16:07.581Z,18.73
2019-04-20T05:18:44.843Z,20.23
2019-04-20T05:21:15.301Z,20.55
2019-04-20T05:23:37.874Z,19.17
2019-04-20T05:26:25.403Z,19.17
2019-04-20T05:28:46.105Z,16.77
2019-04-20T05:31:09.581Z,17.07
2019-04-20T05:34:02.356Z,18.70
2019-04-20T05:36:23.339Z,19.15
2019-04-20T05:39:02.538Z,17.67
2019-04-20T05:41:21.879Z,16.82
2019-04-20T05:43:56.543Z,19.07
2019-04-20T05:46:42.449Z,15.90
2019-04-20T05:49:02.792Z,17.32
2019-04-20T05:51:37.982Z,15.25
2019-04-20T05:54:05.700Z,15.23
2019-04-20T05:56:37.305Z,13.53
2019-04-20T05:58:59.862Z,12.47
2019-04-20T06:03:57.890Z,14.73
2019-04-20T06:06:34.563Z,13.20
2019-04-20T06:09:06.844Z,14.33
2019-04-20T06:11:37.023Z,12.78
2019-04-20T06:13:54.310Z,13.58
2019-04-20T06:16:41.003Z,13.62
2019-04-20T06:19:18.845Z,14.90
2019-04-20T06:24:26.437Z,13.40
2019-04-20T06:27:00.905Z,15.27
2019-04-20T06:29:22.532Z,15.40
2019-04-20T06:31:59.238Z,14.03
2019-04-20T06:37:02.106Z,14.00
2019-04-20T06:39:40.377Z,13.90
2019-04-20T06:44:34.356Z,12.95
2019-04-20T06:47:08.905Z,13.08
2019-04-20T06:49:36.660Z,12.93
2019-04-20T06:52:24.370Z,12.05
2019-04-20T06:54:56.508Z,12.75
2019-04-20T06:57:24.032Z,12.47
2019-04-20T07:00:05.801Z,13.35
2019-04-20T07:02:29.643Z,12.58
2019-04-20T07:04:57.529Z,12.68
2019-04-20T07:07:43.208Z,11.88
2019-04-20T07:12:27.354Z,11.95
2019-04-20T07:14:47.003Z,11.83
2019-04-20T07:17:43.814Z,11.53
2019-04-20T07:20:02.243Z,11.53
2019-04-20T07:22:46.220Z,10.38
2019-04-20T07:25:06.376Z,10.77
2019-04-20T07:27:41.474Z,11.08
2019-04-20T07:30:12.118Z,11.43
2019-04-20T07:32:49.832Z,10.72
2019-04-20T07:35:09.868Z,10.72
2019-04-20T07:40:15.176Z,11.90
2019-04-20T07:45:21.669Z,11.85
2019-04-20T07:47:46.332Z,10.95
2019-04-20T07:52:38.460Z,9.80
2019-04-20T07:57:41.954Z,9.73
2019-04-20T08:03:12.182Z,9.53
2019-04-20T08:05:36.375Z,9.25
2019-04-20T08:08:14.892Z,9.45
2019-04-20T08:10:39.439Z,8.63
2019-04-20T08:13:26.934Z,9.33
2019-04-20T08:15:50.234Z,9.33
2019-04-20T08:18:21.342Z,8.98
2019-04-20T08:20:46.442Z,8.33
2019-04-20T08:23:20.290Z,9.60
2019-04-20T08:25:39.600Z,8.88
2019-04-20T08:28:06.398Z,8.73
2019-04-20T08:31:04.995Z,8.37
2019-04-20T08:33:42.651Z,8.23
2019-04-20T08:36:16.864Z,7.90
2019-04-20T08:39:08.358Z,7.47
2019-04-20T08:41:09.694Z,7.65
2019-04-20T08:43:53.871Z,7.20
2019-04-20T08:46:18.191Z,7.30
2019-04-20T08:48:46.805Z,7.35
2019-04-20T08:51:14.624Z,7.08
2019-04-20T08:53:46.552Z,7.90
2019-04-20T08:56:11.934Z,6.65
2019-04-20T08:58:27.271Z,6.83
2019-04-20T09:01:01.256Z,7.17
2019-04-20T09:03:31.675Z,6.90
2019-04-20T09:06:03.529Z,6.55
2019-04-20T09:08:36.709Z,6.72
2019-04-20T09:13:34.299Z,6.45
2019-04-20T09:15:57.785Z,7.00
2019-04-20T09:18:49.400Z,6.55
2019-04-20T09:21:21.519Z,6.42
2019-04-20T09:24:00.170Z,6.30
2019-04-20T09:26:30.930Z,6.37
2019-04-20T09:28:54.383Z,5.12
2019-04-20T09:31:36.905Z,5.62
2019-04-20T09:34:07.452Z,5.78
2019-04-20T09:36:42.346Z,5.50
2019-04-20T09:39:25.664Z,5.33
2019-04-20T09:42:00.764Z,5.72
2019-04-20T09:44:24.576Z,5.65
2019-04-20T09:46:56.763Z,4.87
2019-04-20T09:49:35.303Z,5.45
2019-04-20T09:52:09.980Z,5.87
2019-04-20T09:54:43.719Z,6.10
2019-04-20T09:59:48.218Z,5.75
2019-04-20T10:02:01.929Z,6.05
2019-04-20T10:04:24.056Z,5.90
2019-04-20T10:06:52.785Z,6.10
2019-04-20T10:09:27.917Z,6.20
2019-04-20T10:11:51.479Z,6.10
2019-04-20T10:14:20.110Z,6.10
2019-04-20T10:16:49.748Z,5.97
2019-04-20T10:19:24.863Z,6.40
2019-04-20T10:21:48.713Z,6.40
2019-04-20T10:24:17.179Z,6.30
2019-04-20T10:26:45.602Z,5.85
2019-04-20T10:29:15.430Z,6.22
2019-04-20T10:31:51.424Z,6.20
2019-04-20T10:34:15.680Z,6.00
2019-04-20T10:36:45.957Z,5.80
2019-04-20T10:41:49.132Z,5.47
2019-04-20T10:44:12.858Z,5.60
2019-04-20T10:46:41.336Z,6.70
2019-04-20T10:49:11.088Z,5.65
2019-04-20T10:51:40.229Z,5.70
2019-04-20T10:54:08.840Z,5.97
2019-04-20T10:56:37.401Z,6.27
2019-04-20T10:59:05.882Z,6.15
2019-04-20T11:01:35.739Z,5.95
2019-04-20T11:04:04.866Z,6.28
2019-04-20T11:06:34.553Z,5.87
2019-04-20T11:09:04.695Z,5.50
2019-04-20T11:11:34.050Z,6.23
2019-04-20T11:14:08.276Z,6.35
2019-04-20T11:16:33.946Z,6.47
2019-04-20T11:19:03.253Z,6.15
2019-04-20T11:21:32.355Z,6.62
2019-04-20T11:24:00.934Z,6.60
2019-04-20T11:26:29.347Z,6.30
2019-04-20T11:28:58.056Z,6.05
2019-04-20T11:31:35.708Z,6.30
2019-04-20T11:36:25.311Z,6.20
2019-04-20T11:38:54.407Z,6.60
2019-04-20T11:41:27.171Z,7.17
2019-04-20T11:43:53.847Z,6.28
2019-04-20T11:46:22.859Z,6.23
2019-04-20T11:48:51.867Z,7.08
2019-04-20T11:51:21.520Z,6.50
2019-04-20T11:53:50.224Z,6.10
2019-04-20T11:56:23.923Z,6.15
2019-04-20T11:58:49.162Z,5.87
2019-04-20T12:01:44.096Z,6.00
2019-04-20T12:04:18.735Z,6.53
2019-04-20T12:06:37.433Z,6.10
2019-04-20T12:09:10.679Z,6.03
2019-04-20T12:11:54.965Z,5.45
2019-04-20T12:14:10.410Z,5.85
2019-04-20T12:16:39.629Z,6.55
2019-04-20T12:19:08.571Z,5.90
2019-04-20T12:21:37.242Z,5.70
2019-04-20T12:24:06.774Z,5.75
2019-04-20T12:26:36.510Z,5.93
2019-04-20T12:29:05.706Z,5.20
2019-04-20T12:31:35.558Z,5.60
2019-04-20T12:34:04.523Z,5.25
2019-04-20T12:36:33.246Z,5.08
2019-04-20T12:39:03.314Z,5.12
2019-04-20T12:41:39.503Z,5.33
2019-04-20T12:44:03.753Z,5.65
2019-04-20T12:46:32.297Z,4.83
2019-04-20T12:49:01.849Z,4.75
2019-04-20T12:51:33.488Z,5.13
2019-04-20T12:56:29.028Z,4.85
2019-04-20T12:58:57.832Z,4.90
2019-04-20T13:01:26.295Z,4.90
2019-04-20T13:03:55.343Z,5.20
2019-04-20T13:06:24.266Z,4.87
2019-04-20T13:08:55.931Z,5.30
2019-04-20T13:11:24.832Z,6.10
2019-04-20T13:16:52.200Z,21.65
2019-04-20T13:21:49.961Z,7.47
2019-04-20T13:24:18.830Z,4.70
2019-04-20T13:26:47.332Z,5.50
2019-04-20T13:29:17.036Z,5.17
2019-04-20T13:31:48.216Z,4.60
2019-04-20T13:34:17.225Z,5.60
2019-04-20T13:36:46.299Z,10.13
2019-04-20T13:39:16.437Z,5.00
2019-04-20T13:44:15.686Z,4.20
2019-04-20T13:46:45.059Z,5.85
2019-04-20T13:49:13.465Z,13.95
2019-04-20T13:51:41.887Z,6.05
2019-04-20T13:54:15.107Z,5.50
2019-04-20T13:56:41.747Z,4.62
2019-04-20T13:59:27.879Z,4.40
2019-04-20T14:02:13.752Z,4.97
2019-04-20T14:04:46.223Z,4.47
2019-04-20T14:07:15.859Z,4.95
2019-04-20T14:12:23.234Z,16.77
2019-04-20T14:17:12.990Z,5.10
2019-04-20T14:19:41.492Z,6.22
2019-04-20T14:22:10.349Z,11.03
2019-04-20T14:24:39.049Z,19.45
2019-04-20T14:27:08.863Z,25.27
2019-04-20T14:29:37.324Z,5.60
2019-04-20T14:32:07.247Z,9.18
2019-04-20T14:34:36.859Z,25.15
2019-04-20T14:37:06.829Z,13.80
2019-04-20T14:39:36.455Z,15.40
2019-04-20T14:42:04.887Z,18.75
2019-04-20T14:44:34.011Z,5.33
2019-04-20T14:47:03.612Z,5.33
2019-04-20T14:49:32.666Z,33.98
2019-04-20T14:52:02.833Z,16.37
2019-04-20T14:54:31.895Z,11.28
2019-04-20T14:57:01.385Z,5.40
2019-04-20T14:59:31.762Z,4.83
2019-04-20T15:02:08.569Z,4.60
2019-04-20T15:04:37.273Z,4.67
2019-04-20T15:07:06.656Z,5.20
2019-04-20T15:09:38.730Z,4.42
2019-04-20T15:12:06.771Z,4.85
2019-04-20T15:14:38.568Z,4.40
2019-04-20T15:17:09.162Z,3.90
2019-04-20T15:22:25.413Z,10.93
2019-04-20T15:24:55.623Z,6.23
2019-04-20T15:29:54.021Z,5.53
2019-04-20T15:32:23.030Z,4.30
2019-04-20T15:34:51.525Z,4.43
2019-04-20T15:37:20.303Z,5.45
2019-04-20T15:39:48.868Z,5.13
2019-04-20T15:42:19.196Z,43.15
2019-04-20T15:44:49.065Z,8.17
2019-04-20T15:47:17.999Z,5.08
2019-04-20T15:49:46.489Z,84.13
2019-04-20T15:52:22.363Z,11.30
2019-04-20T15:57:18.370Z,5.78
2019-04-20T16:02:29.823Z,26.12
2019-04-20T16:05:00.591Z,92.85
2019-04-20T16:07:32.914Z,24.00
2019-04-20T16:09:59.320Z,6.05
2019-04-20T16:12:29.040Z,7.12
2019-04-20T16:14:57.729Z,9.53
2019-04-20T16:17:33.718Z,35.10
2019-04-20T16:20:02.926Z,68.83
2019-04-20T16:24:56.795Z,10.68
2019-04-20T16:27:27.663Z,65.00
2019-04-20T16:29:57.675Z,50.90
2019-04-20T16:32:26.744Z,9.18
2019-04-20T16:34:56.138Z,18.00
2019-04-20T16:37:24.630Z,9.43
2019-04-20T16:39:54.420Z,43.73
2019-04-20T16:42:24.360Z,12.13
2019-04-20T16:44:53.560Z,9.10
2019-04-20T16:47:22.010Z,6.72
2019-04-20T16:49:50.962Z,6.80
2019-04-20T16:52:19.355Z,9.38
2019-04-20T16:54:48.003Z,8.03
2019-04-20T16:57:17.264Z,6.50
2019-04-20T16:59:50.895Z,6.90
2019-04-20T17:02:17.761Z,16.87
2019-04-20T17:07:16.545Z,61.37
2019-04-20T17:09:47.439Z,59.80
2019-04-20T17:12:17.594Z,12.03
2019-04-20T17:14:47.536Z,10.72
2019-04-20T17:17:16.053Z,38.38
2019-04-20T17:19:45.979Z,26.07
2019-04-20T17:22:14.555Z,18.42
2019-04-20T17:24:43.198Z,49.30
2019-04-20T17:27:30.733Z,34.73
2019-04-20T17:30:05.114Z,27.13
2019-04-20T17:32:35.368Z,90.00
2019-04-20T17:35:17.828Z,23.57
2019-04-20T17:37:39.975Z,16.30
2019-04-20T17:42:49.688Z,123.18
2019-04-20T17:50:27.437Z,33.70
2019-04-20T17:52:55.176Z,20.32
2019-04-20T17:55:32.301Z,31.30
2019-04-20T17:58:01.717Z,79.55
2019-04-20T18:00:38.401Z,80.62
2019-04-20T18:03:24.494Z,27.60
2019-04-20T18:06:03.331Z,28.15
2019-04-20T18:08:30.013Z,20.15
2019-04-20T18:10:53.259Z,19.20
2019-04-20T18:13:17.797Z,24.10
2019-04-20T18:15:57.433Z,26.33
2019-04-20T18:18:41.660Z,35.30
2019-04-20T18:20:56.852Z,26.17
2019-04-20T18:23:33.513Z,35.60
2019-04-20T18:26:18.499Z,34.45
2019-04-20T18:28:54.820Z,39.18
2019-04-20T18:31:03.450Z,38.23
2019-04-20T18:33:33.531Z,34.75
2019-04-20T18:36:00.505Z,30.48
2019-04-20T18:38:30.579Z,31.68
2019-04-20T18:41:04.603Z,31.77
2019-04-20T18:43:31.353Z,33.02
2019-04-20T18:46:17.162Z,33.48
2019-04-20T18:48:48.360Z,33.18
2019-04-20T18:51:01.782Z,38.70
2019-04-20T18:53:38.792Z,35.77
2019-04-20T18:56:04.213Z,37.70
2019-04-20T19:01:01.140Z,42.00
2019-04-20T19:03:35.691Z,43.95
2019-04-20T19:06:00.520Z,50.90
2019-04-20T19:08:37.798Z,48.40
2019-04-20T19:11:06.487Z,42.55
2019-04-20T19:13:47.337Z,41.53
2019-04-20T19:16:46.655Z,36.10
2019-04-20T19:19:14.029Z,39.25
2019-04-20T19:21:33.467Z,38.42
2019-04-20T19:24:07.730Z,40.80
2019-04-20T19:26:32.305Z,48.02
2019-04-20T19:29:12.024Z,48.45
2019-04-20T19:31:45.890Z,48.13
2019-04-20T19:34:19.032Z,43.30
2019-04-20T19:36:38.956Z,42.58
2019-04-20T19:41:40.651Z,34.60
2019-04-20T19:44:14.780Z,34.45
2019-04-20T19:49:18.338Z,29.27
2019-04-20T19:51:55.666Z,29.42
2019-04-20T19:54:24.064Z,30.52
2019-04-20T19:56:48.560Z,30.00
2019-04-20T19:59:15.817Z,26.60
2019-04-20T20:01:33.734Z,25.70
2019-04-20T20:04:06.055Z,27.17
2019-04-20T20:06:39.105Z,26.42
2019-04-20T20:09:09.502Z,25.72
2019-04-20T20:11:39.193Z,27.87
2019-04-20T20:14:08.166Z,31.30
2019-04-20T20:19:12.170Z,29.92
2019-04-20T20:21:54.462Z,34.27
2019-04-20T20:24:06.138Z,34.45
2019-04-20T20:26:40.646Z,79.35
2019-04-20T20:29:17.027Z,76.17
2019-04-20T20:31:54.121Z,54.85
2019-04-20T20:34:17.034Z,42.55
2019-04-20T20:36:43.723Z,64.80
2019-04-20T20:39:18.175Z,51.95
2019-04-20T20:41:53.144Z,41.28
2019-04-20T20:44:25.523Z,42.53
2019-04-20T20:46:52.153Z,41.23
2019-04-20T20:49:28.407Z,50.20
2019-04-20T20:52:02.475Z,47.17
2019-04-20T20:54:26.993Z,65.83
2019-04-20T20:56:52.731Z,43.15
2019-04-20T20:59:20.140Z,55.12
2019-04-20T21:01:50.296Z,41.25
2019-04-20T21:04:11.996Z,37.38
2019-04-20T21:06:40.455Z,39.27
2019-04-20T21:09:10.266Z,40.80
2019-04-20T21:14:06.855Z,43.92
2019-04-20T21:16:42.522Z,36.85
2019-04-20T21:19:21.438Z,46.33
2019-04-20T21:21:47.446Z,59.03
2019-04-20T21:24:19.319Z,63.40
2019-04-20T21:26:47.713Z,75.20
2019-04-20T21:29:21.393Z,55.73
2019-04-20T21:31:57.043Z,48.87
2019-04-20T21:34:19.877Z,46.18
2019-04-20T21:36:47.274Z,42.00
2019-04-20T21:39:27.445Z,40.92
2019-04-20T21:44:21.770Z,41.53
2019-04-20T21:46:51.127Z,47.95
2019-04-20T21:49:32.191Z,50.00
2019-04-20T21:54:16.134Z,49.15
2019-04-20T21:56:53.137Z,57.90
2019-04-20T21:59:24.095Z,79.37
2019-04-20T22:04:14.766Z,53.55
2019-04-20T22:06:44.501Z,47.73
2019-04-20T22:09:14.736Z,43.60
2019-04-20T22:11:44.185Z,49.13
2019-04-20T22:14:18.464Z,49.53
2019-04-20T22:16:49.396Z,51.80
2019-04-20T22:19:27.459Z,50.55
2019-04-20T22:21:53.436Z,42.25
2019-04-20T22:24:30.145Z,43.63
2019-04-20T22:26:54.853Z,43.10
2019-04-20T22:29:14.301Z,42.27
2019-04-20T22:31:45.194Z,41.33
2019-04-20T22:34:17.447Z,37.60
2019-04-20T22:39:18.581Z,40.00
2019-04-20T22:41:53.620Z,36.50
2019-04-20T22:44:21.355Z,38.42
2019-04-20T22:46:50.066Z,40.73
2019-04-20T22:49:36.192Z,39.30
2019-04-20T22:51:58.243Z,41.23
2019-04-20T22:54:37.923Z,41.18
2019-04-20T22:57:02.394Z,38.42
2019-04-20T22:59:23.330Z,39.50
2019-04-20T23:01:55.262Z,37.48
2019-04-20T23:04:21.178Z,36.55
2019-04-20T23:06:51.864Z,39.90
2019-04-20T23:09:20.616Z,39.27
2019-04-20T23:11:49.470Z,50.17
2019-04-20T23:14:18.316Z,43.05
2019-04-20T23:16:50.620Z,39.45
2019-04-20T23:19:29.008Z,44.18
2019-04-20T23:21:55.732Z,48.50
2019-04-20T23:24:18.853Z,43.23
2019-04-20T23:26:49.048Z,43.40
2019-04-20T23:29:21.425Z,39.95
2019-04-20T23:31:55.001Z,39.18
2019-04-20T23:34:21.870Z,39.90
2019-04-20T23:39:18.963Z,38.10
2019-04-20T23:41:52.490Z,37.08
2019-04-20T23:44:19.362Z,37.23
2019-04-20T23:47:10.921Z,41.30
2019-04-20T23:49:54.183Z,37.45
2019-04-20T23:52:32.277Z,36.33
2019-04-20T23:54:38.655Z,40.73
2019-04-20T23:57:06.057Z,39.30
2019-04-20T23:59:41.146Z,38.65
